Time;durP1;ratioP1;P1;durP2;ratioP2;P2;SDS_P1;SDS_P2;PMS_P1;PMS_P2;Temp;Humidity;BMP_temperature;BMP_pressure;BME280_temperature;BME280_humidity;BME280_pressure;Samples;Min_cycle;Max_cycle;Signal;HPM_P1;HPM_P2
2022/06/17 00:00:53;;;;;;;6.18;2.30;;;;;;;14.58;53.62;99559.72;5032065;28;20103;-55
2022/06/17 00:03:20;;;;;;;4.50;2.30;;;;;;;14.57;53.58;99568.81;5030890;28;20094;-56
2022/06/17 00:05:46;;;;;;;6.28;2.17;;;;;;;14.50;53.91;99564.06;5031292;28;20029;-52
2022/06/17 00:08:24;;;;;;;4.82;1.98;;;;;;;14.56;53.83;99567.13;5032389;28;20034;-57
2022/06/17 00:10:50;;;;;;;6.60;1.80;;;;;;;14.33;53.89;99535.28;5031905;28;20090;-57
2022/06/17 00:13:18;;;;;;;5.63;2.10;;;;;;;14.48;53.91;99566.06;5031296;28;20025;-55
2022/06/17 00:15:45;;;;;;;3.33;2.10;;;;;;;14.48;53.83;99571.44;5031968;28;20496;-55
2022/06/17 00:18:13;;;;;;;3.30;1.95;;;;;;;14.47;54.18;99569.75;5032278;28;20030;-57
2022/06/17 00:20:39;;;;;;;6.57;2.15;;;;;;;14.45;54.14;99569.03;5031258;28;20036;-56
2022/06/17 00:23:10;;;;;;;3.42;2.10;;;;;;;14.47;54.01;99558.97;5031332;28;20038;-54
2022/06/17 00:25:36;;;;;;;3.47;2.00;;;;;;;14.46;54.42;99573.41;5031945;28;20051;-53
2022/06/17 00:28:05;;;;;;;5.10;2.38;;;;;;;14.44;54.28;99563.81;5031675;28;20535;-53
2022/06/17 00:30:32;;;;;;;7.10;2.15;;;;;;;14.46;54.30;99578.81;5030811;28;20044;-55
2022/06/17 00:33:02;;;;;;;3.65;1.65;;;;;;;14.47;54.25;99569.75;5031489;28;20038;-59
2022/06/17 00:35:35;;;;;;;3.17;1.90;;;;;;;14.47;54.49;99577.84;5032237;28;20079;-62
2022/06/17 00:38:02;;;;;;;3.10;1.70;;;;;;;14.41;54.32;99574.91;5031869;28;20033;-58
2022/06/17 00:40:34;;;;;;;5.50;2.15;;;;;;;14.38;54.54;99576.06;5031464;28;20034;-53
2022/06/17 00:43:06;;;;;;;7.90;1.90;;;;;;;14.43;54.50;99583.69;5031726;28;20065;-56
2022/06/17 00:45:38;;;;;;;4.10;2.00;;;;;;;14.40;54.52;99598.28;5031436;28;20079;-54
2022/06/17 00:48:23;;;;;;;6.43;2.05;;;;;;;14.48;54.20;99587.59;5031208;28;20377;-56
2022/06/17 00:50:55;;;;;;;2.60;1.90;;;;;;;14.41;54.57;99599.97;5031042;28;20890;-56
2022/06/17 00:53:34;;;;;;;7.13;3.95;;;;;;;14.46;54.34;99591.44;5030361;28;20037;-57
2022/06/17 00:56:02;;;;;;;3.75;2.45;;;;;;;14.36;54.58;99588.84;5031909;28;20144;-56
2022/06/17 00:58:52;;;;;;;6.65;2.70;;;;;;;14.40;54.40;99600.97;5031401;28;20033;-54
2022/06/17 01:01:19;;;;;;;5.75;2.42;;;;;;;14.37;54.53;99603.16;5031090;28;20095;-56
2022/06/17 01:03:49;;;;;;;7.53;2.90;;;;;;;14.35;54.92;99595.22;5031419;28;20033;-56
2022/06/17 01:06:19;;;;;;;3.58;2.35;;;;;;;14.40;54.47;99594.75;5031859;28;20033;-55
2022/06/17 01:11:43;;;;;;;3.92;2.00;;;;;;;14.35;54.82;99589.84;5030724;28;20041;-56
2022/06/17 01:14:12;;;;;;;10.95;2.85;;;;;;;14.25;54.72;99572.91;5031434;28;20033;-57
2022/06/17 01:16:41;;;;;;;9.27;2.47;;;;;;;14.37;54.67;99584.31;5031600;28;20057;-57
2022/06/17 01:19:23;;;;;;;3.75;2.05;;;;;;;14.46;54.60;99594.97;5030623;28;20033;-59
2022/06/17 01:21:57;;;;;;;2.90;2.30;;;;;;;14.45;54.64;99587.06;5030807;28;20120;-57
2022/06/17 01:24:24;;;;;;;7.88;2.30;;;;;;;14.47;54.22;99590.44;5031110;28;20071;-56
2022/06/17 01:26:50;;;;;;;3.22;2.30;;;;;;;14.46;54.73;99588.75;5030764;28;20033;-58
2022/06/17 01:29:16;;;;;;;4.72;2.40;;;;;;;14.48;54.94;99586.75;5030848;28;20036;-57
2022/06/17 01:31:49;;;;;;;4.47;2.10;;;;;;;14.55;54.82;99592.38;5030482;28;20461;-56
2022/06/17 01:34:15;;;;;;;1.90;1.73;;;;;;;14.55;54.72;99587.81;5029218;28;20095;-57
2022/06/17 01:36:43;;;;;;;4.60;2.15;;;;;;;14.57;54.71;99596.56;5030713;28;20037;-60
2022/06/17 01:39:11;;;;;;;6.45;1.98;;;;;;;14.43;54.72;99565.66;5030572;28;20120;-58
2022/06/17 01:41:37;;;;;;;4.82;2.05;;;;;;;14.61;54.84;99600.69;5030121;28;20025;-57
2022/06/17 01:44:17;;;;;;;7.18;2.15;;;;;;;14.70;54.67;99590.78;5033783;28;20030;-57
2022/06/17 01:46:44;;;;;;;2.90;2.35;;;;;;;14.70;54.72;99592.66;5034900;28;20350;-55
2022/06/17 01:49:13;;;;;;;5.55;2.45;;;;;;;14.73;54.58;99589.66;5035072;28;20029;-56
2022/06/17 01:51:42;;;;;;;3.38;2.20;;;;;;;14.72;54.48;99586.16;5034667;28;20108;-56
2022/06/17 01:54:14;;;;;;;6.22;2.40;;;;;;;14.76;54.69;99602.81;5034313;28;20030;-55
2022/06/17 01:56:42;;;;;;;6.15;2.30;;;;;;;14.75;54.85;99599.31;5034615;28;20377;-54
2022/06/17 01:59:13;;;;;;;3.80;1.95;;;;;;;14.81;54.66;99596.97;5033947;28;20040;-55
2022/06/17 02:01:43;;;;;;;10.15;6.75;;;;;;;14.83;54.91;99598.53;5034625;28;20449;-54
2022/06/17 02:04:13;;;;;;;5.18;2.60;;;;;;;14.86;54.85;99594.66;5034854;28;20033;-54
2022/06/17 02:06:56;;;;;;;4.65;2.15;;;;;;;14.98;54.35;99597.94;5034485;28;20491;-55
2022/06/17 02:09:21;;;;;;;7.47;1.88;;;;;;;14.89;54.24;99589.81;5033909;28;20088;-56
2022/06/17 02:11:47;;;;;;;3.42;2.22;;;;;;;14.99;54.41;99595.09;5034290;28;20030;-57
2022/06/17 02:14:14;;;;;;;4.78;1.65;;;;;;;15.11;54.11;99595.69;5033996;28;20414;-54
2022/06/17 02:16:50;;;;;;;5.82;2.20;;;;;;;15.29;53.63;99587.50;5032594;28;20044;-52
2022/06/17 02:19:16;;;;;;;5.30;1.85;;;;;;;15.46;53.45;99595.69;5032826;28;20547;-56
2022/06/17 02:21:50;;;;;;;9.35;2.83;;;;;;;15.70;53.01;99591.41;5034476;28;20052;-53
2022/06/17 02:24:18;;;;;;;4.82;1.95;;;;;;;15.88;52.16;99592.16;5033717;28;20054;-56
2022/06/17 02:26:45;;;;;;;5.25;2.15;;;;;;;16.06;52.00;99589.34;5033673;28;20033;-54
2022/06/17 02:29:13;;;;;;;4.22;2.35;;;;;;;16.28;51.25;99589.72;5033514;28;20083;-56
2022/06/17 02:31:43;;;;;;;8.73;1.90;;;;;;;16.59;50.86;99593.59;5033912;28;20112;-54
2022/06/17 02:34:13;;;;;;;2.75;1.83;;;;;;;16.93;49.78;99598.00;5033364;28;20037;-52
2022/06/17 02:37:01;;;;;;;2.95;1.85;;;;;;;17.61;48.57;99585.00;5032998;28;20049;-57
2022/06/17 02:39:27;;;;;;;6.20;1.67;;;;;;;18.14;46.58;99586.25;5033937;28;20478;-57
2022/06/17 02:41:54;;;;;;;2.05;1.65;;;;;;;18.53;45.48;99592.56;5033455;28;20037;-53
2022/06/17 02:44:35;;;;;;;3.80;1.90;;;;;;;18.86;44.73;99586.88;5033441;28;20026;-55
2022/06/17 02:47:02;;;;;;;4.90;2.17;;;;;;;18.96;44.21;99597.47;5033832;28;20489;-56
2022/06/17 02:49:30;;;;;;;5.22;1.50;;;;;;;18.87;44.38;99577.72;5034156;28;20482;-58
2022/06/17 02:51:58;;;;;;;3.65;1.45;;;;;;;18.84;44.86;99594.38;5033373;28;20104;-55
2022/06/17 02:54:29;;;;;;;2.53;1.55;;;;;;;18.73;44.98;99593.75;5032874;28;20488;-51
2022/06/17 02:56:57;;;;;;;2.92;1.75;;;;;;;18.64;45.22;99594.88;5033316;28;20038;-56
2022/06/17 02:59:34;;;;;;;3.22;2.33;;;;;;;19.05;44.25;99593.69;5032990;28;20338;-57
2022/06/17 03:02:05;;;;;;;2.78;1.70;;;;;;;19.56;43.30;99584.81;5012790;28;20109;-56
2022/06/17 03:04:32;;;;;;;3.47;1.73;;;;;;;20.19;41.84;99581.59;5013503;28;20029;-56
2022/06/17 03:06:58;;;;;;;5.90;1.70;;;;;;;20.75;40.39;99574.59;5021609;28;20040;-55
2022/06/17 03:09:29;;;;;;;6.70;1.88;;;;;;;21.35;39.49;99584.25;5033521;28;20037;-56
2022/06/17 03:12:02;;;;;;;6.38;2.20;;;;;;;21.79;38.54;99584.91;5033506;28;20139;-53
2022/06/17 03:14:33;;;;;;;7.68;1.70;;;;;;;22.23;37.83;99580.84;5032697;28;20040;-56
2022/06/17 03:17:05;;;;;;;6.97;1.75;;;;;;;22.78;36.44;99584.47;5032602;28;20068;-52
2022/06/17 03:19:35;;;;;;;8.88;2.33;;;;;;;23.34;35.25;99591.34;5033309;28;20061;-55
2022/06/17 03:22:03;;;;;;;7.93;1.70;;;;;;;23.80;34.17;99578.59;5032753;28;20025;-56
2022/06/17 03:25:06;;;;;;;7.22;2.05;;;;;;;24.56;33.68;99582.59;5032844;28;20069;-55
2022/06/17 03:27:43;;;;;;;14.13;2.05;;;;;;;25.02;33.00;99589.59;5032895;28;20203;-55
2022/06/17 03:30:12;;;;;;;5.22;1.63;;;;;;;25.19;32.13;99597.25;5032994;28;20038;-57
2022/06/17 03:32:43;;;;;;;6.10;1.52;;;;;;;25.39;31.69;99590.72;5032631;28;20056;-51
2022/06/17 03:35:24;;;;;;;4.07;1.73;;;;;;;25.89;31.18;99579.59;5032448;28;20030;-56
2022/06/17 03:37:55;;;;;;;5.03;1.45;;;;;;;25.92;30.65;99587.38;5032712;28;20026;-54
2022/06/17 03:40:27;;;;;;;5.25;1.45;;;;;;;25.83;30.66;99586.03;5031826;28;20080;-55
2022/06/17 03:43:05;;;;;;;3.63;1.67;;;;;;;25.61;30.76;99574.69;5032700;28;20030;-56
2022/06/17 03:45:45;;;;;;;4.10;1.40;;;;;;;25.35;31.99;99582.97;5032788;28;20132;-58
2022/06/17 03:48:35;;;;;;;3.80;1.30;;;;;;;25.05;32.02;99578.19;5032277;28;20034;-57
2022/06/17 03:51:01;;;;;;;2.75;1.40;;;;;;;24.50;32.51;99582.41;5031474;28;20499;-54
2022/06/17 03:53:35;;;;;;;5.13;1.65;;;;;;;24.18;33.74;99582.44;5032556;28;20033;-55
2022/06/17 03:56:06;;;;;;;5.53;1.77;;;;;;;24.23;33.50;99585.34;5031662;28;20091;-56
2022/06/17 03:58:32;;;;;;;8.23;1.30;;;;;;;24.17;32.87;99583.50;5032359;28;20029;-57
2022/06/17 04:01:08;;;;;;;3.20;1.45;;;;;;;24.37;33.02;99593.47;5032163;28;20116;-51
2022/06/17 04:03:37;;;;;;;5.78;1.30;;;;;;;24.40;32.86;99587.56;5031516;28;20045;-65
2022/06/17 04:06:09;;;;;;;5.70;1.60;;;;;;;24.73;32.52;99591.94;5030195;28;20112;-65
2022/06/17 04:09:00;;;;;;;5.50;1.50;;;;;;;25.19;32.51;99589.03;5028713;28;20305;-64
2022/06/17 04:11:35;;;;;;;4.13;1.60;;;;;;;25.51;31.54;99587.03;5026874;28;20037;-65
2022/06/17 04:14:05;;;;;;;4.55;1.50;;;;;;;25.66;30.88;99591.28;5029898;28;20118;-65
2022/06/17 04:17:05;;;;;;;4.03;1.70;;;;;;;25.89;31.12;99587.84;5027948;28;20036;-65
2022/06/17 04:19:31;;;;;;;2.50;1.77;;;;;;;25.39;31.20;99585.25;5024677;28;20056;-65
2022/06/17 04:22:01;;;;;;;5.28;1.35;;;;;;;25.38;31.24;99581.66;5029598;28;20018;-64
2022/06/17 04:24:29;;;;;;;5.00;1.73;;;;;;;25.35;31.48;99588.44;5029958;28;20045;-65
2022/06/17 04:27:00;;;;;;;2.42;1.45;;;;;;;25.79;30.58;99584.78;5028208;28;20071;-66
2022/06/17 04:29:34;;;;;;;7.30;1.50;;;;;;;26.91;28.92;99577.06;5029605;28;20036;-64
2022/06/17 04:32:06;;;;;;;6.95;1.70;;;;;;;28.13;27.41;99581.00;5027784;28;20033;-62
2022/06/17 04:34:32;;;;;;;3.15;1.60;;;;;;;29.15;25.37;99566.50;5029770;28;20037;-64
2022/06/17 04:37:04;;;;;;;3.58;1.30;;;;;;;30.13;24.46;99566.91;5021116;28;20025;-61
2022/06/17 04:39:35;;;;;;;4.60;1.88;;;;;;;30.68;23.61;99571.56;5020929;28;20872;-61
2022/06/17 04:42:05;;;;;;;7.22;1.92;;;;;;;31.18;22.96;99570.25;5019915;28;20041;-62
2022/06/17 04:44:31;;;;;;;5.18;1.30;;;;;;;31.85;21.58;99574.47;5030196;28;20064;-61
2022/06/17 04:47:08;;;;;;;2.72;1.40;;;;;;;33.16;20.60;99572.38;5029603;28;20085;-62
2022/06/17 04:49:38;;;;;;;5.28;1.35;;;;;;;33.96;19.70;99566.25;5026495;28;20068;-61
2022/06/17 04:52:08;;;;;;;2.83;1.10;;;;;;;34.56;18.96;99566.16;5026465;28;20026;-61
2022/06/17 04:54:36;;;;;;;4.68;1.50;;;;;;;34.97;18.50;99562.16;5030290;28;20116;-62
2022/06/17 04:57:03;;;;;;;2.13;1.25;;;;;;;35.66;17.08;99550.00;5030201;28;20109;-61
2022/06/17 04:59:30;;;;;;;4.00;1.23;;;;;;;36.75;16.58;99571.50;5029072;28;20116;-61
2022/06/17 05:01:57;;;;;;;2.90;1.45;;;;;;;37.40;15.48;99565.31;5029323;28;20033;-62
2022/06/17 05:04:23;;;;;;;4.88;1.25;;;;;;;37.86;15.17;99567.16;5029890;28;20104;-62
2022/06/17 05:06:49;;;;;;;4.10;1.55;;;;;;;38.04;15.01;99564.53;5029604;28;20033;-61
2022/06/17 05:09:25;;;;;;;4.57;1.45;;;;;;;38.58;14.77;99581.41;5026453;28;20091;-61
2022/06/17 05:11:57;;;;;;;1.33;0.82;;;;;;;39.23;13.98;99583.13;5027602;28;20057;-62
2022/06/17 05:14:44;;;;;;;2.30;1.00;;;;;;;40.23;13.18;99569.50;5030030;28;20370;-62
2022/06/17 05:17:10;;;;;;;1.50;0.90;;;;;;;40.14;12.55;99575.13;5028020;28;20393;-61
2022/06/17 05:19:35;;;;;;;1.20;1.10;;;;;;;40.77;12.21;99571.13;5029477;28;20033;-62
2022/06/17 05:22:04;;;;;;;3.00;1.20;;;;;;;41.12;12.12;99554.16;5024629;28;20032;-62
2022/06/17 05:24:30;;;;;;;3.80;1.10;;;;;;;41.60;11.44;99552.13;5028731;28;20478;-61
2022/06/17 05:26:57;;;;;;;3.90;1.08;;;;;;;42.31;11.29;99551.59;5029338;28;20041;-62
2022/06/17 05:29:24;;;;;;;2.53;1.00;;;;;;;42.17;11.02;99561.16;5028621;28;20033;-61
2022/06/17 05:31:51;;;;;;;1.17;1.02;;;;;;;41.22;11.74;99547.34;5023427;28;20473;-61
2022/06/17 05:34:17;;;;;;;1.58;0.85;;;;;;;40.10;12.51;99557.31;5020272;28;20083;-62
2022/06/17 05:36:42;;;;;;;2.97;0.85;;;;;;;40.47;12.06;99556.97;5019722;28;20029;-61
2022/06/17 05:39:08;;;;;;;1.70;0.75;;;;;;;41.38;11.21;99547.63;5018736;28;20034;-62
2022/06/17 05:41:34;;;;;;;0.85;0.80;;;;;;;41.90;10.54;99549.25;5028803;28;20470;-62
2022/06/17 05:44:00;;;;;;;3.53;1.00;;;;;;;42.84;9.91;99515.31;5019249;28;20029;-61
2022/06/17 05:46:25;;;;;;;2.40;0.90;;;;;;;44.30;9.06;99546.03;5019700;28;20041;-61
2022/06/17 05:48:51;;;;;;;1.27;1.10;;;;;;;44.67;8.86;99543.03;5014526;28;20124;-63
2022/06/17 05:51:16;;;;;;;2.05;1.08;;;;;;;44.95;9.04;99539.34;5008877;28;20482;-61
2022/06/17 05:53:42;;;;;;;3.70;1.10;;;;;;;45.04;8.71;99544.81;5008932;28;20056;-61
2022/06/17 05:56:07;;;;;;;1.48;1.38;;;;;;;46.14;8.22;99543.28;5022446;28;20041;-60
2022/06/17 05:58:33;;;;;;;1.20;0.82;;;;;;;47.47;6.80;99544.03;5027169;28;20045;-59
2022/06/17 06:00:58;;;;;;;2.75;1.00;;;;;;;48.27;6.62;99534.56;5027925;28;20030;-61
2022/06/17 06:03:26;;;;;;;2.08;0.90;;;;;;;48.85;6.14;99545.72;5028048;28;20043;-62
2022/06/17 06:05:51;;;;;;;2.90;1.00;;;;;;;48.92;5.76;99520.22;5028340;28;20112;-62
2022/06/17 06:08:17;;;;;;;4.07;1.08;;;;;;;49.13;5.96;99504.53;5029756;28;20147;-62
2022/06/17 06:10:43;;;;;;;3.72;1.35;;;;;;;49.17;6.08;99521.66;5030316;28;20040;-61
2022/06/17 06:13:16;;;;;;;2.70;1.00;;;;;;;49.90;6.18;99526.56;5027576;28;20025;-65
2022/06/17 06:15:44;;;;;;;2.47;0.90;;;;;;;49.99;5.72;99515.59;5029133;28;20068;-61
2022/06/17 06:18:16;;;;;;;4.38;1.05;;;;;;;50.94;5.28;99528.03;5030569;28;20101;-62
2022/06/17 06:20:41;;;;;;;2.28;1.00;;;;;;;50.78;4.76;99519.03;5030100;28;20033;-66
2022/06/17 06:23:08;;;;;;;2.15;1.08;;;;;;;51.34;4.30;99515.75;5029994;28;20040;-61
2022/06/17 06:25:34;;;;;;;1.15;1.15;;;;;;;51.76;4.06;99507.50;5030106;28;20057;-61
2022/06/17 06:28:10;;;;;;;2.05;1.20;;;;;;;52.28;4.08;99506.00;5029284;28;20502;-63
2022/06/17 06:30:36;;;;;;;1.60;1.15;;;;;;;51.65;4.45;99516.91;5033826;28;20440;-60
2022/06/17 06:33:03;;;;;;;1.65;1.10;;;;;;;51.71;4.05;99510.75;5033429;28;20033;-61
2022/06/17 06:35:35;;;;;;;2.17;1.50;;;;;;;52.08;4.09;99513.03;5013712;28;20074;-62
2022/06/17 06:38:02;;;;;;;1.60;1.50;;;;;;;51.56;4.39;99507.97;5016769;28;20045;-62
2022/06/17 06:40:28;;;;;;;3.65;1.70;;;;;;;51.16;4.27;99499.50;5033523;28;20100;-60
2022/06/17 06:42:54;;;;;;;2.42;1.58;;;;;;;51.12;4.33;99507.22;5033633;28;20037;-62
2022/06/17 06:45:23;;;;;;;1.95;1.50;;;;;;;51.75;4.36;99505.88;5030658;28;20040;-62
2022/06/17 06:47:50;;;;;;;1.13;1.08;;;;;;;52.06;4.03;99497.59;5031650;28;20029;-61
2022/06/17 06:50:21;;;;;;;3.83;1.60;;;;;;;52.55;3.91;99500.50;5032715;28;20041;-62
2022/06/17 06:52:47;;;;;;;1.55;1.45;;;;;;;52.59;3.86;99489.91;5032996;28;20046;-61
2022/06/17 06:55:13;;;;;;;3.25;1.58;;;;;;;53.00;3.72;99484.63;5032824;28;20518;-62
2022/06/17 06:57:49;;;;;;;2.17;1.55;;;;;;;53.70;3.62;99502.72;5032889;28;20026;-62
2022/06/17 07:00:22;;;;;;;1.95;1.83;;;;;;;53.82;3.23;99505.00;5033149;28;20049;-60
2022/06/17 07:02:48;;;;;;;2.72;1.77;;;;;;;53.58;3.57;99495.50;5021609;28;20034;-62
2022/06/17 07:05:14;;;;;;;2.28;2.08;;;;;;;53.89;3.28;99486.91;5032537;28;20393;-61
2022/06/17 07:07:40;;;;;;;5.68;1.95;;;;;;;53.91;3.24;99495.88;5032708;28;20535;-62
2022/06/17 07:10:09;;;;;;;2.50;2.33;;;;;;;54.65;3.11;99498.06;5032761;28;20041;-62
2022/06/17 07:12:35;;;;;;;2.47;2.22;;;;;;;54.41;3.02;99488.66;5032312;28;20485;-63
2022/06/17 07:15:01;;;;;;;2.42;2.22;;;;;;;53.79;3.28;99488.69;5031338;28;20034;-62
2022/06/17 07:17:26;;;;;;;4.50;2.38;;;;;;;53.44;3.49;99488.69;5031813;28;20116;-60
2022/06/17 07:19:52;;;;;;;4.85;2.17;;;;;;;52.64;3.77;99474.31;5032674;28;20450;-64
2022/06/17 07:22:17;;;;;;;2.50;2.13;;;;;;;51.80;4.49;99480.56;5032376;28;20118;-62
2022/06/17 07:24:43;;;;;;;2.65;2.10;;;;;;;51.68;4.30;99475.34;5032502;28;20744;-62
2022/06/17 07:27:08;;;;;;;4.88;2.00;;;;;;;51.81;4.54;99481.38;5032075;28;20481;-62
2022/06/17 07:29:34;;;;;;;2.17;1.80;;;;;;;51.93;4.50;99465.81;5029005;28;20041;-65
2022/06/17 07:32:00;;;;;;;2.00;1.90;;;;;;;51.76;4.24;99465.50;5032040;28;20787;-66
2022/06/17 07:34:26;;;;;;;2.50;1.77;;;;;;;50.63;5.16;99473.44;5030718;28;20122;-67
2022/06/17 07:39:54;;;;;;;;;;;;;;;49.45;5.88;99464.16;5011902;28;20045;-66
2022/06/17 07:42:37;;;;;;;2.08;1.30;;;;;;;45.40;7.57;99451.63;5012498;28;19918;-66
2022/06/17 07:45:08;;;;;;;1.63;1.15;;;;;;;43.52;9.03;99462.38;5012515;28;20061;-66
2022/06/17 07:47:34;;;;;;;2.33;1.05;;;;;;;40.47;11.16;99445.59;5010874;28;20046;-66
2022/06/17 07:49:59;;;;;;;2.55;1.00;;;;;;;38.17;13.40;99460.25;5012499;28;20030;-67
2022/06/17 07:52:25;;;;;;;1.15;1.05;;;;;;;36.18;15.44;99468.47;5022842;28;20036;-65
2022/06/17 07:54:51;;;;;;;1.98;1.13;;;;;;;34.39;18.73;99474.84;5031902;28;20044;-66
2022/06/17 07:57:16;;;;;;;15.00;1.98;;;;;;;32.73;23.30;99481.22;5029939;28;20108;-64
2022/06/17 07:59:42;;;;;;;5.80;1.73;;;;;;;31.26;25.44;99474.91;5032317;28;20048;-68
2022/06/17 08:02:07;;;;;;;8.63;1.98;;;;;;;29.86;27.90;99479.38;5030940;28;20115;-68
2022/06/17 08:04:34;;;;;;;2.70;1.60;;;;;;;29.26;28.53;99482.00;5030564;28;20524;-69
2022/06/17 08:07:00;;;;;;;4.40;1.80;;;;;;;29.34;30.68;99473.28;5031704;28;20136;-68
2022/06/17 08:09:26;;;;;;;5.25;1.60;;;;;;;32.04;25.71;99469.59;5031610;28;20060;-69
2022/06/17 08:11:51;;;;;;;4.57;1.20;;;;;;;34.41;22.11;99466.22;5031450;28;20034;-69
2022/06/17 08:14:17;;;;;;;3.05;1.30;;;;;;;36.21;17.00;99462.28;5031762;28;20053;-68
2022/06/17 08:16:43;;;;;;;3.08;1.30;;;;;;;37.85;16.98;99459.31;5032087;28;20029;-70
2022/06/17 08:19:09;;;;;;;1.92;1.10;;;;;;;38.65;15.83;99446.72;5032067;28;20045;-69
2022/06/17 08:21:35;;;;;;;2.15;1.30;;;;;;;38.37;14.91;99460.88;5031437;28;20470;-70
2022/06/17 08:24:01;;;;;;;2.10;1.15;;;;;;;36.68;16.68;99448.38;5031432;28;20029;-70
2022/06/17 08:26:27;;;;;;;2.08;1.15;;;;;;;35.20;18.14;99448.41;5030106;28;20445;-68
2022/06/17 08:28:52;;;;;;;3.70;1.13;;;;;;;33.81;18.14;99408.91;5031442;28;20041;-70
2022/06/17 08:31:18;;;;;;;2.90;1.17;;;;;;;33.00;19.01;99444.00;5029872;28;20472;-68
2022/06/17 08:33:43;;;;;;;1.48;1.08;;;;;;;32.32;19.55;99443.31;5031689;28;20041;-67
2022/06/17 08:36:16;;;;;;;2.03;1.10;;;;;;;31.75;20.53;99434.94;5030047;28;20055;-65
2022/06/17 08:39:13;;;;;;;2.22;1.17;;;;;;;31.18;21.00;99451.34;5031328;28;20048;-71
2022/06/17 08:42:00;;;;;;;4.45;1.42;;;;;;;31.08;21.18;99454.91;5025112;28;20041;-68
2022/06/17 08:44:32;;;;;;;1.73;1.15;;;;;;;30.63;22.57;99450.81;5031136;28;20424;-68
2022/06/17 08:47:12;;;;;;;4.13;0.95;;;;;;;30.44;22.51;99459.50;5031318;28;20048;-70
2022/06/17 08:50:13;;;;;;;2.88;1.23;;;;;;;30.41;21.79;99437.94;5030695;28;20041;-69
2022/06/17 08:52:55;;;;;;;2.50;1.20;;;;;;;29.88;22.48;99440.50;5009881;28;20064;-68
2022/06/17 08:55:42;;;;;;;3.63;1.02;;;;;;;29.30;23.49;99450.06;5011668;28;20069;-67
2022/06/17 08:58:19;;;;;;;3.92;1.10;;;;;;;28.71;24.55;99454.25;5011423;28;20033;-67
2022/06/17 09:00:55;;;;;;;3.28;1.45;;;;;;;28.16;25.09;99459.44;5023540;28;20529;-67
2022/06/17 09:03:45;;;;;;;4.75;1.13;;;;;;;27.49;25.89;99472.78;5029286;28;20026;-68
2022/06/17 09:06:26;;;;;;;6.50;1.20;;;;;;;26.64;26.78;99497.84;5031269;28;20037;-55
2022/06/17 09:09:09;;;;;;;2.38;1.10;;;;;;;25.87;27.83;99491.25;5030705;28;20433;-55
2022/06/17 09:11:47;;;;;;;3.92;1.23;;;;;;;25.18;28.95;99492.28;5030506;28;20515;-61
2022/06/17 09:14:15;;;;;;;2.55;1.00;;;;;;;24.78;28.36;99490.84;5030634;28;20473;-62
2022/06/17 09:17:17;;;;;;;5.55;1.10;;;;;;;24.67;29.21;99494.28;5030835;28;20046;-60
2022/06/17 09:19:46;;;;;;;1.95;0.90;;;;;;;24.51;29.52;99495.72;5030581;28;20458;-61
2022/06/17 09:22:17;;;;;;;5.57;1.10;;;;;;;24.83;28.79;99492.91;5030426;28;20029;-58
2022/06/17 09:24:44;;;;;;;4.30;1.05;;;;;;;24.72;29.96;99466.25;5030250;28;20037;-59
2022/06/17 09:27:21;;;;;;;1.27;0.85;;;;;;;25.23;29.50;99491.63;5030580;28;20041;-59
2022/06/17 09:29:55;;;;;;;4.10;1.10;;;;;;;25.60;28.85;99499.84;5030200;28;20497;-60
2022/06/17 09:32:40;;;;;;;5.45;1.00;;;;;;;26.28;28.64;99487.91;5030912;28;20061;-58
2022/06/17 09:35:29;;;;;;;3.15;1.20;;;;;;;26.76;28.71;99489.59;5030281;28;20037;-58
2022/06/17 09:38:06;;;;;;;1.67;1.10;;;;;;;27.36;29.38;99490.38;5030818;28;20045;-59
2022/06/17 09:40:35;;;;;;;2.53;1.25;;;;;;;27.57;29.50;99479.84;5030202;28;20153;-61
2022/06/17 09:43:13;;;;;;;4.80;1.02;;;;;;;27.86;28.71;99490.00;5030243;28;20075;-61
2022/06/17 09:45:42;;;;;;;2.50;1.00;;;;;;;27.57;28.30;99487.25;5030816;28;20041;-60
2022/06/17 09:48:19;;;;;;;1.85;0.95;;;;;;;27.63;27.27;99492.59;5030057;28;20083;-59
2022/06/17 09:51:23;;;;;;;3.33;1.00;;;;;;;27.78;27.22;99491.22;5030202;28;20088;-60
2022/06/17 09:53:56;;;;;;;1.70;1.13;;;;;;;27.85;27.64;99494.66;5022723;28;20038;-57
2022/06/17 09:56:31;;;;;;;1.30;0.90;;;;;;;27.91;27.44;99485.41;5028622;28;20183;-59
2022/06/17 09:59:24;;;;;;;1.00;0.93;;;;;;;27.94;26.50;99481.34;5030164;28;20041;-61
2022/06/17 10:01:54;;;;;;;0.90;0.73;;;;;;;27.59;27.42;99466.69;5030895;28;20493;-60
2022/06/17 10:04:19;;;;;;;5.00;1.10;;;;;;;27.55;27.20;99471.00;5032885;28;20037;-60
2022/06/17 10:06:45;;;;;;;2.08;0.80;;;;;;;27.48;26.64;99473.00;5033924;28;20037;-61
2022/06/17 10:09:35;;;;;;;3.35;0.98;;;;;;;27.58;26.69;99470.50;5033780;28;20045;-59
2022/06/17 10:12:13;;;;;;;2.50;0.98;;;;;;;27.26;27.47;99472.84;5034034;28;20078;-59
2022/06/17 10:14:54;;;;;;;3.22;0.85;;;;;;;26.98;27.50;99467.03;5033930;28;20033;-62
2022/06/17 10:20:28;;;;;;;1.83;1.00;;;;;;;27.12;27.25;99458.56;5034273;28;20044;-60
2022/06/17 10:23:05;;;;;;;1.00;0.88;;;;;;;26.97;27.31;99445.31;5032935;28;20440;-57
2022/06/17 10:26:00;;;;;;;2.33;0.98;;;;;;;27.11;26.94;99448.63;5033656;28;20057;-59
2022/06/17 10:28:46;;;;;;;2.95;0.90;;;;;;;26.54;27.64;99437.22;5033551;28;20366;-65
2022/06/17 10:31:27;;;;;;;2.50;1.10;;;;;;;25.92;28.87;99427.44;5034259;28;20065;-59
2022/06/17 10:33:57;;;;;;;4.15;1.02;;;;;;;25.63;29.30;99430.84;5033887;28;20044;-59
2022/06/17 10:36:23;;;;;;;3.38;1.20;;;;;;;25.51;30.12;99421.72;5033671;28;20038;-62
2022/06/17 10:38:48;;;;;;;3.85;1.20;;;;;;;25.56;29.51;99434.75;5033131;28;20382;-59
2022/06/17 10:41:16;;;;;;;2.63;1.50;;;;;;;25.57;29.50;99441.91;5032549;28;20115;-58
2022/06/17 10:43:52;;;;;;;2.88;1.27;;;;;;;25.57;29.40;99441.91;5033762;28;20030;-59
2022/06/17 10:46:22;;;;;;;5.25;1.80;;;;;;;25.11;31.42;99461.41;5033391;28;20131;-60
2022/06/17 10:48:57;;;;;;;3.75;1.83;;;;;;;24.71;33.90;99472.75;5031969;28;20385;-60
2022/06/17 10:51:24;;;;;;;3.85;1.35;;;;;;;24.06;38.42;99483.84;5033017;28;20041;-62
2022/06/17 10:53:55;;;;;;;5.35;1.80;;;;;;;23.39;41.41;99477.88;5033485;28;20163;-58
2022/06/17 10:56:55;;;;;;;7.47;2.42;;;;;;;22.88;41.78;99481.19;5033035;28;20084;-57
2022/06/17 10:59:41;;;;;;;6.32;2.25;;;;;;;22.23;45.86;99455.41;5011992;28;20107;-60
2022/06/17 11:02:30;;;;;;;7.50;3.00;;;;;;;21.71;47.55;99448.84;5014023;28;20045;-57
2022/06/17 11:05:04;;;;;;;4.43;1.77;;;;;;;21.37;47.44;99444.09;5029168;28;20047;-54
2022/06/17 11:07:47;;;;;;;2.15;1.40;;;;;;;21.38;46.36;99444.97;5032853;28;20416;-56
2022/06/17 11:10:13;;;;;;;4.55;1.98;;;;;;;21.25;48.96;99439.44;5033137;28;20113;-54
2022/06/17 11:12:43;;;;;;;3.30;1.73;;;;;;;21.28;48.66;99447.22;5032558;28;20124;-56
2022/06/17 11:15:28;;;;;;;3.42;1.67;;;;;;;21.36;47.37;99449.78;5031777;28;20369;-56
2022/06/17 11:17:59;;;;;;;6.18;2.40;;;;;;;21.15;49.77;99450.72;5032922;28;20036;-56
2022/06/17 11:20:28;;;;;;;3.30;2.00;;;;;;;21.10;49.71;99442.31;5033140;28;20072;-53
2022/06/17 11:22:56;;;;;;;2.50;1.35;;;;;;;21.03;53.17;99454.03;5032959;28;20031;-59
2022/06/17 11:25:33;;;;;;;3.85;1.80;;;;;;;21.05;53.70;99459.25;5032970;28;20558;-55
2022/06/17 11:28:13;;;;;;;1.48;1.33;;;;;;;21.05;49.94;99449.22;5064796;28;20362;-63
2022/06/17 11:31:01;;;;;;;4.25;2.70;;;;;;;21.01;51.10;99456.13;5032556;28;20021;-57
2022/06/17 11:33:32;;;;;;;3.53;2.22;;;;;;;20.71;52.46;99442.69;5032577;28;20378;-55
2022/06/17 11:36:16;;;;;;;3.58;2.65;;;;;;;20.78;52.26;99457.22;5032172;28;20405;-55
2022/06/17 11:38:42;;;;;;;4.60;2.60;;;;;;;20.61;54.11;99453.13;5031964;28;20029;-54
2022/06/17 11:41:08;;;;;;;7.70;2.58;;;;;;;20.59;53.12;99453.31;5032517;28;20037;-59
2022/06/17 11:43:42;;;;;;;5.32;2.35;;;;;;;20.62;51.75;99462.97;5032367;28;20041;-57
2022/06/17 11:46:17;;;;;;;3.97;2.20;;;;;;;20.62;51.54;99457.50;5032103;28;20025;-57
2022/06/17 11:48:48;;;;;;;3.00;2.30;;;;;;;20.58;49.76;99464.41;5032770;28;20040;-53
2022/06/17 11:51:26;;;;;;;3.67;2.40;;;;;;;20.62;49.93;99466.53;5032515;28;20120;-57
2022/06/17 11:53:56;;;;;;;3.97;2.10;;;;;;;20.62;49.05;99476.56;5032097;28;20393;-56
2022/06/17 11:56:33;;;;;;;4.50;1.83;;;;;;;20.72;48.57;99471.59;5032263;28;20033;-55
2022/06/17 11:59:09;;;;;;;3.58;1.98;;;;;;;20.76;48.44;99478.34;5032768;28;20044;-56
2022/06/17 12:01:35;;;;;;;3.33;1.90;;;;;;;20.59;49.24;99460.63;5031615;28;20033;-55
2022/06/17 12:04:01;;;;;;;4.22;2.20;;;;;;;20.51;49.15;99457.03;5032359;28;20029;-59